createdAt,value
2023-01-22T00:01:30.287Z,1.20
2023-01-22T00:03:58.325Z,1.20
2023-01-22T00:06:26.331Z,1.20
2023-01-22T00:08:56.194Z,1.20
2023-01-22T00:11:25.599Z,1.20
2023-01-22T00:13:55.978Z,1.20
2023-01-22T00:16:24.003Z,1.20
2023-01-22T00:18:52.012Z,1.20
2023-01-22T00:21:20.026Z,1.20
2023-01-22T00:23:47.998Z,1.20
2023-01-22T00:26:17.664Z,1.20
2023-01-22T00:28:47.032Z,1.20
2023-01-22T00:31:16.971Z,1.20
2023-01-22T00:33:45.537Z,1.20
2023-01-22T00:36:15.833Z,1.10
2023-01-22T00:38:44.305Z,1.10
2023-01-22T00:41:13.489Z,1.10
2023-01-22T00:43:41.648Z,1.10
2023-01-22T00:46:13.527Z,1.10
2023-01-22T00:48:42.230Z,1.10
2023-01-22T00:51:13.035Z,1.00
2023-01-22T00:53:41.415Z,1.10
2023-01-22T00:56:09.805Z,1.00
2023-01-22T00:58:40.315Z,1.10
2023-01-22T01:01:10.375Z,1.00
2023-01-22T01:03:38.632Z,1.00
2023-01-22T01:06:09.058Z,1.00
2023-01-22T01:08:39.388Z,1.00
2023-01-22T01:11:10.027Z,1.00
2023-01-22T01:13:42.997Z,1.00
2023-01-22T01:16:18.092Z,1.00
2023-01-22T01:18:48.398Z,1.00
2023-01-22T01:21:17.120Z,1.00
2023-01-22T01:23:45.129Z,1.00
2023-01-22T01:26:15.526Z,1.00
2023-01-22T01:28:45.340Z,0.90
2023-01-22T01:31:16.975Z,1.00
2023-01-22T01:33:45.044Z,1.00
2023-01-22T01:36:15.267Z,0.90
2023-01-22T01:38:43.880Z,0.90
2023-01-22T01:41:14.271Z,0.90
2023-01-22T01:43:42.375Z,1.00
2023-01-22T01:46:20.629Z,0.90
2023-01-22T01:48:52.576Z,1.00
2023-01-22T01:51:24.961Z,1.00
2023-01-22T01:53:53.572Z,1.00
2023-01-22T01:56:26.340Z,1.00
2023-01-22T01:58:58.349Z,1.00
2023-01-22T02:01:28.615Z,1.00
2023-01-22T02:03:57.085Z,1.00
2023-01-22T02:06:25.057Z,1.00
2023-01-22T02:08:54.968Z,0.90
2023-01-22T02:11:23.755Z,0.90
2023-01-22T02:13:55.125Z,0.90
2023-01-22T02:16:23.226Z,0.90
2023-01-22T02:18:52.777Z,0.90
2023-01-22T02:21:35.478Z,1.00
2023-01-22T02:24:04.096Z,1.00
2023-01-22T02:26:32.217Z,1.00
2023-01-22T02:29:00.245Z,0.90
2023-01-22T02:31:28.307Z,0.90
2023-01-22T02:33:56.537Z,1.00
2023-01-22T02:36:25.682Z,1.00
2023-01-22T02:38:55.225Z,1.00
2023-01-22T02:41:23.596Z,0.90
2023-01-22T02:43:51.582Z,0.90
2023-01-22T02:46:20.404Z,0.90
2023-01-22T02:48:48.389Z,0.90
2023-01-22T02:51:16.381Z,0.90
2023-01-22T02:53:44.490Z,0.90
2023-01-22T02:56:13.861Z,0.90
2023-01-22T02:58:41.869Z,0.90
2023-01-22T03:01:19.077Z,0.90
2023-01-22T03:03:47.703Z,0.90
2023-01-22T03:06:16.174Z,0.80
2023-01-22T03:08:44.641Z,0.80
2023-01-22T03:11:14.047Z,0.90
2023-01-22T03:13:59.684Z,0.90
2023-01-22T03:16:45.396Z,0.80
2023-01-22T03:19:30.798Z,0.80
2023-01-22T03:22:01.630Z,0.80
2023-01-22T03:24:29.945Z,0.80
2023-01-22T03:26:59.256Z,0.80
2023-01-22T03:29:27.283Z,0.90
2023-01-22T03:31:55.297Z,0.90
2023-01-22T03:34:24.598Z,0.80
2023-01-22T03:36:52.844Z,0.80
2023-01-22T03:39:20.806Z,0.80
2023-01-22T03:41:48.929Z,0.80
2023-01-22T03:44:18.303Z,0.80
2023-01-22T03:46:46.472Z,0.90
2023-01-22T03:49:15.253Z,0.80
2023-01-22T03:51:43.937Z,0.80
2023-01-22T03:54:13.031Z,0.80
2023-01-22T03:56:41.801Z,0.80
2023-01-22T03:59:10.864Z,0.80
2023-01-22T04:01:40.248Z,0.80
2023-01-22T04:04:08.281Z,0.80
2023-01-22T04:06:36.252Z,0.80
2023-01-22T04:09:04.533Z,0.80
2023-01-22T04:11:32.771Z,0.80
2023-01-22T04:14:00.750Z,0.80
2023-01-22T04:16:28.779Z,0.80
2023-01-22T04:18:58.190Z,0.80
2023-01-22T04:21:26.192Z,0.80
2023-01-22T04:23:54.283Z,0.80
2023-01-22T04:26:22.253Z,0.80
2023-01-22T04:28:50.296Z,0.80
2023-01-22T04:31:18.323Z,0.80
2023-01-22T04:33:46.346Z,0.80
2023-01-22T04:36:15.735Z,0.70
2023-01-22T04:38:43.729Z,0.70
2023-01-22T04:41:11.714Z,0.70
2023-01-22T04:43:39.780Z,0.70
2023-01-22T04:46:07.849Z,0.70
2023-01-22T04:48:35.866Z,0.70
2023-01-22T04:51:03.929Z,0.70
2023-01-22T04:53:33.304Z,0.70
2023-01-22T04:56:01.322Z,0.70
2023-01-22T04:58:29.301Z,0.70
2023-01-22T05:00:57.388Z,0.70
2023-01-22T05:03:25.457Z,0.70
2023-01-22T05:05:53.402Z,0.70
2023-01-22T05:08:21.362Z,0.70
2023-01-22T05:10:50.706Z,0.70
2023-01-22T05:13:18.665Z,0.70
2023-01-22T05:15:46.694Z,0.70
2023-01-22T05:18:14.950Z,0.70
2023-01-22T05:20:42.906Z,0.70
2023-01-22T05:23:10.892Z,0.70
2023-01-22T05:25:41.062Z,0.70
2023-01-22T05:28:10.409Z,0.70
2023-01-22T05:30:38.464Z,0.70
2023-01-22T05:33:06.449Z,0.70
2023-01-22T05:35:34.439Z,0.70
2023-01-22T05:38:02.473Z,0.70
2023-01-22T05:40:30.725Z,0.70
2023-01-22T05:42:58.740Z,0.70
2023-01-22T05:45:28.101Z,0.70
2023-01-22T05:47:56.082Z,0.70
2023-01-22T05:50:24.057Z,0.70
2023-01-22T05:52:56.521Z,0.70
2023-01-22T05:55:24.578Z,0.70
2023-01-22T05:57:52.590Z,0.70
2023-01-22T06:00:21.176Z,0.80
2023-01-22T06:02:50.619Z,0.70
2023-01-22T06:05:18.655Z,0.70
2023-01-22T06:07:46.632Z,0.70
2023-01-22T06:10:14.601Z,0.70
2023-01-22T06:12:42.596Z,0.70
2023-01-22T06:15:11.207Z,0.70
2023-01-22T06:17:39.546Z,0.70
2023-01-22T06:20:11.463Z,0.70
2023-01-22T06:22:39.463Z,0.70
2023-01-22T06:25:09.332Z,0.70
2023-01-22T06:27:37.325Z,0.70
2023-01-22T06:30:06.142Z,0.70
2023-01-22T06:32:34.151Z,0.70
2023-01-22T06:35:02.184Z,0.60
2023-01-22T06:37:31.652Z,0.60
2023-01-22T06:39:59.625Z,0.60
2023-01-22T06:42:27.601Z,0.60
2023-01-22T06:44:55.555Z,0.60
2023-01-22T06:47:23.557Z,0.60
2023-01-22T06:49:51.549Z,0.60
2023-01-22T06:52:19.531Z,0.60
2023-01-22T06:54:48.967Z,0.60
2023-01-22T06:57:16.958Z,0.60
2023-01-22T06:59:44.956Z,0.60
2023-01-22T07:02:18.771Z,0.60
2023-01-22T07:04:46.895Z,0.60
2023-01-22T07:07:15.105Z,0.60
2023-01-22T07:09:43.153Z,0.70
2023-01-22T07:12:12.503Z,0.70
2023-01-22T07:14:40.566Z,0.70
2023-01-22T07:17:08.560Z,0.70
2023-01-22T07:19:36.767Z,0.70
2023-01-22T07:22:04.783Z,0.70
2023-01-22T07:24:32.844Z,0.70
2023-01-22T07:27:03.779Z,0.60
2023-01-22T07:29:33.231Z,0.70
2023-01-22T07:32:01.503Z,0.70
2023-01-22T07:34:29.573Z,0.70
2023-01-22T07:36:57.695Z,0.70
2023-01-22T07:39:25.655Z,0.70
2023-01-22T07:41:54.621Z,0.70
2023-01-22T07:44:22.603Z,0.70
2023-01-22T07:46:52.017Z,0.70
2023-01-22T07:49:20.240Z,0.70
2023-01-22T07:51:48.209Z,0.70
2023-01-22T07:54:18.441Z,0.70
2023-01-22T07:56:46.603Z,0.70
2023-01-22T07:59:14.588Z,0.70
2023-01-22T08:01:42.583Z,0.80
2023-01-22T08:04:13.952Z,0.70
2023-01-22T08:06:41.922Z,0.80
2023-01-22T08:09:09.919Z,0.80
2023-01-22T08:11:37.893Z,0.80
2023-01-22T08:14:05.887Z,0.80
2023-01-22T08:16:33.938Z,0.80
2023-01-22T08:19:01.958Z,0.80
2023-01-22T08:21:31.524Z,0.80
2023-01-22T08:24:02.173Z,0.80
2023-01-22T08:26:30.456Z,0.80
2023-01-22T08:28:58.417Z,0.80
2023-01-22T08:31:28.210Z,0.80
2023-01-22T08:33:58.894Z,0.90
2023-01-22T08:36:27.555Z,0.90
2023-01-22T08:38:56.896Z,0.90
2023-01-22T08:41:27.851Z,0.90
2023-01-22T08:43:55.846Z,0.90
2023-01-22T08:46:23.822Z,0.90
2023-01-22T08:48:51.793Z,1.00
2023-01-22T08:51:20.132Z,1.00
2023-01-22T08:53:48.211Z,1.00
2023-01-22T08:56:17.768Z,1.00
2023-01-22T08:58:45.749Z,1.10
2023-01-22T09:01:17.644Z,1.10
2023-01-22T09:03:45.849Z,1.10
2023-01-22T09:06:14.198Z,1.10
2023-01-22T09:08:42.158Z,1.10
2023-01-22T09:11:10.167Z,1.10
2023-01-22T09:13:42.452Z,1.00
2023-01-22T09:16:10.948Z,1.10
2023-01-22T09:18:39.938Z,1.10
2023-01-22T09:21:09.518Z,1.20
2023-01-22T09:23:37.544Z,1.20
2023-01-22T09:26:05.844Z,1.20
2023-01-22T09:28:35.955Z,1.20
2023-01-22T09:31:07.144Z,1.20
2023-01-22T09:33:35.147Z,1.20
2023-01-22T09:36:11.291Z,1.20
2023-01-22T09:38:39.371Z,1.20
2023-01-22T09:41:17.119Z,1.30
2023-01-22T09:43:50.489Z,1.20
2023-01-22T09:46:24.556Z,1.30
2023-01-22T09:48:57.393Z,1.30
2023-01-22T09:51:25.641Z,1.30
2023-01-22T09:53:57.948Z,1.30
2023-01-22T09:56:34.979Z,1.30
2023-01-22T09:59:06.087Z,1.30
2023-01-22T10:01:36.801Z,1.30
2023-01-22T10:04:08.558Z,1.30
2023-01-22T10:06:40.036Z,1.40
2023-01-22T10:09:15.294Z,1.40
2023-01-22T10:11:46.898Z,1.40
2023-01-22T10:14:18.704Z,1.50
2023-01-22T10:16:49.070Z,1.50
2023-01-22T10:19:21.152Z,1.50
2023-01-22T10:21:51.778Z,1.50
2023-01-22T10:24:19.785Z,1.50
2023-01-22T10:26:50.222Z,1.60
2023-01-22T10:29:25.475Z,1.60
2023-01-22T10:31:56.879Z,1.60
2023-01-22T10:34:30.890Z,1.70
2023-01-22T10:37:02.460Z,1.70
2023-01-22T10:39:40.490Z,1.70
2023-01-22T10:42:16.531Z,1.70
2023-01-22T10:44:44.533Z,1.70
2023-01-22T10:47:20.815Z,1.70
2023-01-22T10:49:50.064Z,1.80
2023-01-22T10:52:24.602Z,1.70
2023-01-22T10:54:56.272Z,1.70
2023-01-22T10:57:28.389Z,1.70
2023-01-22T11:00:02.507Z,1.70
2023-01-22T11:02:31.978Z,1.70
2023-01-22T11:05:14.889Z,1.70
2023-01-22T11:07:45.207Z,1.70
2023-01-22T11:10:23.388Z,1.70
2023-01-22T11:12:54.636Z,1.70
2023-01-22T11:15:31.327Z,1.70
2023-01-22T11:18:03.090Z,1.70
2023-01-22T11:20:34.199Z,1.70
2023-01-22T11:23:15.085Z,1.70
2023-01-22T11:25:46.964Z,1.70
2023-01-22T11:28:31.237Z,1.70
2023-01-22T11:31:20.540Z,1.80
2023-01-22T11:34:15.439Z,1.80
2023-01-22T11:36:47.303Z,1.80
2023-01-22T11:39:26.704Z,1.80
2023-01-22T11:42:03.854Z,1.80
2023-01-22T11:44:56.815Z,1.80
2023-01-22T11:48:14.174Z,1.80
2023-01-22T11:50:50.399Z,1.70
2023-01-22T11:53:47.242Z,1.70
2023-01-22T11:56:31.351Z,1.70
2023-01-22T11:59:05.414Z,1.80
2023-01-22T12:01:46.585Z,1.70
2023-01-22T12:04:49.150Z,1.70
2023-01-22T12:07:37.040Z,1.80
2023-01-22T12:10:25.080Z,1.80
2023-01-22T12:13:00.328Z,1.80
2023-01-22T12:15:43.220Z,1.90
2023-01-22T12:18:45.912Z,1.90
2023-01-22T12:21:22.167Z,1.90
2023-01-22T12:23:57.482Z,1.90
2023-01-22T12:26:28.253Z,2.00
2023-01-22T12:29:03.790Z,2.00
2023-01-22T12:31:37.111Z,2.00
2023-01-22T12:34:15.422Z,2.00
2023-01-22T12:36:44.769Z,2.00
2023-01-22T12:39:23.828Z,2.00
2023-01-22T12:42:06.210Z,1.90
2023-01-22T12:44:50.685Z,1.90
2023-01-22T12:47:23.352Z,1.90
2023-01-22T12:49:53.112Z,1.90
2023-01-22T12:52:36.329Z,1.90
2023-01-22T12:55:29.463Z,1.90
2023-01-22T12:57:58.715Z,1.90
2023-01-22T13:00:35.204Z,1.90
2023-01-22T13:03:05.470Z,1.90
2023-01-22T13:05:44.744Z,1.90
2023-01-22T13:08:37.167Z,1.90
2023-01-22T13:11:09.691Z,1.90
2023-01-22T13:13:46.640Z,1.90
2023-01-22T13:16:26.874Z,1.90
2023-01-22T13:19:00.777Z,1.90
2023-01-22T13:21:31.681Z,1.90
2023-01-22T13:24:02.182Z,1.90
2023-01-22T13:26:35.933Z,1.90
2023-01-22T13:29:17.169Z,1.90
2023-01-22T13:31:52.556Z,1.90
2023-01-22T13:34:20.921Z,1.90
2023-01-22T13:36:50.474Z,1.90
2023-01-22T13:39:20.963Z,1.90
2023-01-22T13:41:53.633Z,1.90
2023-01-22T13:44:26.383Z,1.90
2023-01-22T13:46:54.970Z,1.90
2023-01-22T13:49:26.463Z,1.90
2023-01-22T13:51:55.491Z,1.90
2023-01-22T13:54:29.977Z,1.90
2023-01-22T13:56:59.505Z,1.90
2023-01-22T13:59:37.879Z,1.80
2023-01-22T14:02:24.433Z,1.80
2023-01-22T14:04:52.499Z,1.90
2023-01-22T14:07:28.709Z,2.10
2023-01-22T14:09:57.661Z,2.00
2023-01-22T14:12:30.268Z,2.00
2023-01-22T14:14:58.566Z,2.00
2023-01-22T14:17:28.784Z,2.00
2023-01-22T14:19:57.013Z,2.00
2023-01-22T14:22:25.990Z,2.00
2023-01-22T14:24:54.779Z,2.10
2023-01-22T14:27:23.973Z,2.00
2023-01-22T14:29:54.535Z,2.10
2023-01-22T14:32:23.432Z,2.10
2023-01-22T14:34:51.411Z,2.00
2023-01-22T14:37:21.322Z,2.10
2023-01-22T14:39:49.330Z,2.00
2023-01-22T14:42:17.308Z,2.00
2023-01-22T14:44:45.277Z,2.00
2023-01-22T14:47:15.600Z,2.10
2023-01-22T14:49:44.893Z,2.10
2023-01-22T14:52:12.864Z,2.10
2023-01-22T14:54:43.337Z,2.10
2023-01-22T14:57:11.341Z,2.00
2023-01-22T14:59:39.398Z,2.00
2023-01-22T15:02:07.451Z,2.00
2023-01-22T15:04:36.826Z,2.00
2023-01-22T15:07:04.804Z,2.00
2023-01-22T15:09:32.834Z,2.00
2023-01-22T15:12:00.868Z,2.00
2023-01-22T15:14:29.106Z,2.00
2023-01-22T15:16:57.332Z,2.00
2023-01-22T15:19:25.297Z,1.90
2023-01-22T15:21:54.654Z,1.90
2023-01-22T15:24:24.352Z,1.90
2023-01-22T15:26:55.858Z,2.00
2023-01-22T15:29:24.314Z,2.00
2023-01-22T15:31:52.382Z,2.00
2023-01-22T15:34:20.502Z,1.90
2023-01-22T15:36:48.500Z,2.00
2023-01-22T15:39:18.162Z,1.90
2023-01-22T15:41:46.238Z,1.90
2023-01-22T15:44:15.209Z,1.90
2023-01-22T15:46:44.501Z,1.90
2023-01-22T15:49:13.199Z,1.90
2023-01-22T15:51:42.215Z,2.00
2023-01-22T15:54:14.184Z,1.90
2023-01-22T15:56:44.266Z,2.00
2023-01-22T15:59:13.180Z,1.90
2023-01-22T16:01:45.172Z,1.90
2023-01-22T16:04:13.330Z,1.90
2023-01-22T16:06:41.427Z,2.00
2023-01-22T16:09:09.816Z,2.00
2023-01-22T16:11:38.192Z,1.90
2023-01-22T16:14:07.804Z,1.90
2023-01-22T16:16:38.842Z,2.00
2023-01-22T16:19:08.255Z,1.90
2023-01-22T16:21:38.839Z,1.90
2023-01-22T16:24:07.730Z,1.90
2023-01-22T16:26:37.858Z,1.90
2023-01-22T16:29:08.483Z,1.90
2023-01-22T16:31:37.253Z,1.90
2023-01-22T16:34:13.119Z,1.90
2023-01-22T16:36:42.089Z,1.90
2023-01-22T16:39:16.386Z,1.90
2023-01-22T16:41:44.671Z,1.90
2023-01-22T16:44:16.062Z,1.90
2023-01-22T16:46:47.408Z,1.90
2023-01-22T16:49:17.720Z,1.90
2023-01-22T16:51:47.338Z,2.00
2023-01-22T16:54:23.100Z,1.90
2023-01-22T16:56:52.120Z,1.90
2023-01-22T16:59:21.832Z,2.00
2023-01-22T17:01:50.019Z,2.00
2023-01-22T17:04:18.380Z,1.90
2023-01-22T17:06:48.520Z,1.90
2023-01-22T17:09:18.939Z,1.90
2023-01-22T17:11:50.383Z,2.00
2023-01-22T17:14:24.624Z,2.00
2023-01-22T17:16:52.731Z,1.90
2023-01-22T17:19:20.897Z,1.90
2023-01-22T17:21:51.506Z,1.90
2023-01-22T17:24:22.127Z,1.90
2023-01-22T17:26:50.551Z,1.90
2023-01-22T17:29:18.841Z,1.90
2023-01-22T17:31:48.573Z,1.90
2023-01-22T17:34:18.335Z,1.90
2023-01-22T17:36:46.394Z,1.90
2023-01-22T17:39:16.440Z,2.00
2023-01-22T17:41:44.782Z,2.00
2023-01-22T17:44:13.423Z,1.90
2023-01-22T17:46:41.766Z,2.00
2023-01-22T17:49:11.598Z,2.00
2023-01-22T17:51:40.233Z,1.90
2023-01-22T17:54:08.503Z,1.90
2023-01-22T17:56:40.079Z,1.90
2023-01-22T17:59:08.719Z,1.90
2023-01-22T18:01:39.007Z,1.90
2023-01-22T18:04:09.179Z,1.90
2023-01-22T18:06:39.931Z,2.00
2023-01-22T18:09:09.431Z,2.00
2023-01-22T18:11:38.473Z,1.90
2023-01-22T18:14:08.360Z,1.90
2023-01-22T18:16:40.771Z,1.90
2023-01-22T18:19:08.997Z,2.00
2023-01-22T18:21:40.115Z,2.00
2023-01-22T18:24:10.096Z,2.00
2023-01-22T18:26:38.535Z,2.00
2023-01-22T18:29:13.272Z,2.00
2023-01-22T18:31:44.484Z,2.00
2023-01-22T18:34:19.441Z,2.00
2023-01-22T18:36:52.415Z,2.00
2023-01-22T18:39:23.601Z,2.00
2023-01-22T18:41:51.769Z,2.00
2023-01-22T18:44:23.336Z,2.00
2023-01-22T18:46:55.040Z,2.00
2023-01-22T18:49:23.561Z,2.00
2023-01-22T18:51:54.109Z,2.00
2023-01-22T18:54:22.123Z,2.00
2023-01-22T18:56:50.688Z,2.00
2023-01-22T18:59:18.879Z,2.00
2023-01-22T19:01:51.651Z,2.00
2023-01-22T19:04:22.201Z,2.00
2023-01-22T19:06:56.956Z,2.00
2023-01-22T19:09:26.830Z,2.00
2023-01-22T19:11:57.993Z,2.00
2023-01-22T19:14:26.043Z,2.00
2023-01-22T19:16:57.178Z,2.00
2023-01-22T19:19:27.268Z,2.00
2023-01-22T19:21:57.999Z,2.00
2023-01-22T19:24:28.232Z,2.10
2023-01-22T19:26:56.707Z,2.00
2023-01-22T19:29:25.808Z,2.00
2023-01-22T19:31:56.987Z,2.10
2023-01-22T19:34:25.979Z,2.00
2023-01-22T19:36:57.813Z,2.00
2023-01-22T19:39:26.407Z,2.00
2023-01-22T19:41:56.684Z,2.00
2023-01-22T19:44:27.862Z,2.00
2023-01-22T19:46:56.324Z,2.00
2023-01-22T19:49:27.438Z,2.10
2023-01-22T19:51:56.953Z,2.10
2023-01-22T19:54:28.033Z,2.00
2023-01-22T19:56:56.266Z,2.00
2023-01-22T19:59:26.353Z,2.10
2023-01-22T20:01:54.670Z,2.10
2023-01-22T20:04:25.283Z,2.10
2023-01-22T20:07:07.954Z,2.10
2023-01-22T20:09:39.012Z,2.10
2023-01-22T20:12:09.167Z,2.10
2023-01-22T20:14:39.112Z,2.10
2023-01-22T20:17:07.237Z,2.10
2023-01-22T20:19:42.307Z,2.10
2023-01-22T20:22:11.996Z,2.10
2023-01-22T20:24:41.548Z,2.00
2023-01-22T20:27:10.596Z,2.10
2023-01-22T20:29:42.537Z,2.00
2023-01-22T20:32:13.437Z,2.00
2023-01-22T20:34:48.648Z,2.00
2023-01-22T20:37:21.193Z,2.00
2023-01-22T20:39:54.212Z,2.10
2023-01-22T20:42:22.718Z,2.10
2023-01-22T20:44:54.773Z,2.00
2023-01-22T20:47:23.172Z,2.00
2023-01-22T20:49:54.103Z,2.10
2023-01-22T20:52:23.637Z,2.00
2023-01-22T20:55:01.766Z,2.10
2023-01-22T20:57:32.996Z,2.10
2023-01-22T21:00:01.219Z,2.00
2023-01-22T21:02:32.484Z,2.00
2023-01-22T21:05:00.754Z,2.00
2023-01-22T21:07:35.699Z,2.10
2023-01-22T21:10:06.921Z,2.00
2023-01-22T21:12:36.716Z,2.00
2023-01-22T21:15:05.780Z,2.10
2023-01-22T21:17:34.026Z,2.10
2023-01-22T21:20:07.458Z,2.10
2023-01-22T21:22:39.202Z,2.00
2023-01-22T21:25:11.911Z,2.00
2023-01-22T21:27:40.000Z,2.00
2023-01-22T21:30:09.529Z,2.10
2023-01-22T21:32:39.976Z,2.10
2023-01-22T21:35:08.471Z,2.10
2023-01-22T21:37:37.865Z,2.10
2023-01-22T21:40:08.542Z,2.10
2023-01-22T21:42:56.701Z,2.10
2023-01-22T21:45:42.414Z,2.10
2023-01-22T21:48:10.501Z,2.10
2023-01-22T21:50:40.957Z,2.10
2023-01-22T21:53:12.753Z,2.00
2023-01-22T21:55:52.372Z,2.00
2023-01-22T21:58:20.654Z,2.00
2023-01-22T22:00:48.885Z,2.00
2023-01-22T22:03:17.013Z,2.00
2023-01-22T22:05:55.233Z,2.00
2023-01-22T22:08:24.654Z,2.10
2023-01-22T22:10:53.127Z,2.00
2023-01-22T22:13:21.742Z,2.10
2023-01-22T22:15:49.695Z,2.00
2023-01-22T22:18:17.760Z,2.10
2023-01-22T22:20:45.864Z,2.10
2023-01-22T22:23:13.952Z,2.10
2023-01-22T22:25:47.831Z,2.10
2023-01-22T22:28:17.588Z,2.10
2023-01-22T22:30:45.638Z,2.10
2023-01-22T22:33:13.731Z,2.10
2023-01-22T22:35:41.817Z,2.10
2023-01-22T22:38:09.798Z,2.10
2023-01-22T22:40:37.835Z,2.10
2023-01-22T22:43:07.251Z,2.10
2023-01-22T22:45:38.070Z,2.10
2023-01-22T22:48:07.604Z,2.20
2023-01-22T22:50:35.849Z,2.10
2023-01-22T22:53:03.886Z,2.10
2023-01-22T22:55:31.926Z,2.10
2023-01-22T22:57:59.873Z,2.10
2023-01-22T23:00:29.277Z,2.10
2023-01-22T23:02:57.238Z,2.10
2023-01-22T23:05:26.280Z,2.10
2023-01-22T23:07:55.667Z,2.10
2023-01-22T23:10:32.290Z,2.10
2023-01-22T23:13:02.775Z,2.10
2023-01-22T23:15:33.352Z,2.10
2023-01-22T23:18:02.055Z,2.20
2023-01-22T23:20:30.078Z,2.10
2023-01-22T23:22:59.076Z,2.10
2023-01-22T23:25:27.086Z,2.10
2023-01-22T23:27:57.433Z,2.10
2023-01-22T23:30:26.861Z,2.10
2023-01-22T23:32:57.561Z,2.10
2023-01-22T23:35:28.536Z,2.10
2023-01-22T23:37:56.501Z,2.10
2023-01-22T23:40:24.830Z,2.10
2023-01-22T23:42:52.776Z,2.10
2023-01-22T23:45:21.012Z,2.10
2023-01-22T23:47:48.976Z,2.10
2023-01-22T23:50:18.993Z,2.10
2023-01-22T23:52:47.560Z,2.10
2023-01-22T23:55:15.939Z,2.10
2023-01-22T23:57:45.461Z,2.10
